METAR AND TAF INFORMATION
METAR FOR LIRP
ADDS - METARS form results

(1001 UTC 19 June 2018)
Data provider http://aviationweather.gov/adds/metars/
 
METAR text: LIRP 190945Z 12010KT 060V150 9999 FEW040 29/13 Q1019 NOSIG
Conditions at: LIRP (PISA (CIV/IT-AFB, IT) observed 0945 UTC 19 June 2018
Temperature: 29.0°C (84°F)
Dewpoint: 13.0°C (55°F) [RH = 37%]
Pressure (altimeter): 30.09 inches Hg (1019.0 mb)
Winds: from the ESE (120 degrees) at 12 MPH (10 knots; 5.2 m/s)
Visibility: 6 or more miles (10+ km)
Ceiling: at least 12,000 feet AGL
Clouds: few clouds at 4000 feet AGL
Weather: no significant weather observed at this time

METAR text: LIRP 190915Z 11008KT 090V170 9999 FEW040 28/12 Q1019 NOSIG
Conditions at: LIRP (PISA (CIV/IT-AFB, IT) observed 0915 UTC 19 June 2018
Temperature: 28.0°C (82°F)
Dewpoint: 12.0°C (54°F) [RH = 37%]
Pressure (altimeter): 30.09 inches Hg (1019.0 mb)
Winds: from the ESE (110 degrees) at 9 MPH (8 knots; 4.2 m/s)
Visibility: 6 or more miles (10+ km)
Ceiling: at least 12,000 feet AGL
Clouds: few clouds at 4000 feet AGL
Weather: no significant weather observed at this time

Forecast for: LIRP (PISA (CIV/IT-AFB, IT)
Text: TAF LIRP 190500Z 1906/2006 VRB03KT CAVOK
Forecast period: 0600 to 0700 UTC 19 June 2018
Forecast type: FROM: standard forecast or significant change
Winds: variable direction winds at 3 MPH (3 knots; 1.6 m/s)
Visibility: 6 or more miles (10+ km)
Clouds: not forecast
Weather: NSW  (no significant weather)
Text: BECMG 1907/1909 31010KT
Forecast period: 0700 to 1800 UTC 19 June 2018
Forecast type: BECOMING: Conditions expected to become as follows by 0900 UTC 19 June 2018
Winds: from the NW (310 degrees) at 12 MPH (10 knots; 5.2 m/s)
Visibility: 6 or more miles (10+ km)
Weather: NSW  (no significant weather)
Text: BECMG 1918/1920 09005KT
Forecast period: 1800 UTC 19 June 2018 to 0600 UTC 20 June 2018
Forecast type: BECOMING: Conditions expected to become as follows by 2000 UTC 19 June 2018
Winds: from the E (90 degrees) at 6 MPH (5 knots; 2.6 m/s)
Visibility: 6 or more miles (10+ km)
Weather: NSW  (no significant weather)

 AIRPORT MAP

 RUNWAY INFORMATION
Runway 04L Runway length 9160 ft Runway width 141 ft
Runway elevation 2 ft Runway displaced threshold 979 ft Runway heading 37
Runway 22R Runway length 9160 ft Runway width 141 ft
Runway elevation 6 ft Runway displaced threshold 0 ft Runway heading 217
Runway 04R Runway length 9820 ft Runway width 148 ft
Runway elevation 3 ft Runway displaced threshold 490 ft Runway heading 37
Runway 22L Runway length 9820 ft Runway width 148 ft
Runway elevation 6 ft Runway displaced threshold 843 ft Runway heading 217

 AIRPORT FREQUENCIES
Type APP Name APP Frequency 122.1 MHZ
Type GND Name GND Frequency 121.6 MHZ
Type TWR Name TWR Frequency 119.1 MHZ

 AIRPORT NEAR NAVIGATION AIDS
Type TACAN Name Pisa Frequency 108300 KHZ
Type VOR-DME Name Pisa Frequency 112100 KHZ
Type NDB Name Pisa Frequency 379 KHZ



Powered by Virtual Airlines Manager [v2.6.2]